createdAt,value
2023-01-25T00:00:56.184Z,1.00
2023-01-25T00:03:30.470Z,1.00
2023-01-25T00:06:01.865Z,1.10
2023-01-25T00:08:29.101Z,1.00
2023-01-25T00:10:58.431Z,1.00
2023-01-25T00:13:26.169Z,1.00
2023-01-25T00:15:54.407Z,1.10
2023-01-25T00:18:21.752Z,1.00
2023-01-25T00:20:48.960Z,1.00
2023-01-25T00:23:18.307Z,1.00
2023-01-25T00:25:45.809Z,1.00
2023-01-25T00:28:13.027Z,1.00
2023-01-25T00:30:41.574Z,1.00
2023-01-25T00:33:17.879Z,0.90
2023-01-25T00:35:45.647Z,0.90
2023-01-25T00:38:33.930Z,0.80
2023-01-25T00:41:01.514Z,0.80
2023-01-25T00:43:29.018Z,0.80
2023-01-25T00:46:05.743Z,0.80
2023-01-25T00:48:33.192Z,0.70
2023-01-25T00:51:03.756Z,0.70
2023-01-25T00:53:30.915Z,0.70
2023-01-25T00:55:58.020Z,0.80
2023-01-25T00:58:25.045Z,0.80
2023-01-25T01:00:57.106Z,0.80
2023-01-25T01:03:24.936Z,0.80
2023-01-25T01:06:06.747Z,0.70
2023-01-25T01:08:40.699Z,0.70
2023-01-25T01:11:10.085Z,0.70
2023-01-25T01:13:38.139Z,0.70
2023-01-25T01:16:11.947Z,0.70
2023-01-25T01:18:44.660Z,0.70
2023-01-25T01:21:13.410Z,0.60
2023-01-25T01:23:40.708Z,0.60
2023-01-25T01:26:11.435Z,0.60
2023-01-25T01:28:41.601Z,0.70
2023-01-25T01:31:15.548Z,0.80
2023-01-25T01:33:43.114Z,0.70
2023-01-25T01:36:16.102Z,0.70
2023-01-25T01:38:43.752Z,0.80
2023-01-25T01:41:12.339Z,0.80
2023-01-25T01:43:39.837Z,0.80
2023-01-25T01:46:17.007Z,0.80
2023-01-25T01:49:13.149Z,0.80
2023-01-25T01:51:52.135Z,0.80
2023-01-25T01:54:26.131Z,0.70
2023-01-25T01:57:04.079Z,0.70
2023-01-25T01:59:54.554Z,0.70
2023-01-25T02:02:24.155Z,0.70
2023-01-25T02:04:53.948Z,0.70
2023-01-25T02:07:34.726Z,0.70
2023-01-25T02:10:04.045Z,0.50
2023-01-25T02:12:31.713Z,0.60
2023-01-25T02:14:58.718Z,0.60
2023-01-25T02:17:32.127Z,0.60
2023-01-25T02:20:18.014Z,0.60
2023-01-25T02:23:11.679Z,0.60
2023-01-25T02:25:40.244Z,0.60
2023-01-25T02:28:31.532Z,0.60
2023-01-25T02:30:58.692Z,0.60
2023-01-25T02:33:27.293Z,0.60
2023-01-25T02:36:23.056Z,0.60
2023-01-25T02:39:11.217Z,0.60
2023-01-25T02:41:40.678Z,0.60
2023-01-25T02:44:15.137Z,0.60
2023-01-25T02:46:45.050Z,0.60
2023-01-25T02:49:12.682Z,0.70
2023-01-25T02:51:42.187Z,0.70
2023-01-25T02:54:11.704Z,0.70
2023-01-25T02:56:40.919Z,0.70
2023-01-25T02:59:13.362Z,0.70
2023-01-25T03:01:42.565Z,0.70
2023-01-25T03:04:10.021Z,0.60
2023-01-25T03:06:37.970Z,0.60
2023-01-25T03:09:09.563Z,0.60
2023-01-25T03:11:37.134Z,0.60
2023-01-25T03:14:04.440Z,0.60
2023-01-25T03:16:32.775Z,0.60
2023-01-25T03:18:59.913Z,0.60
2023-01-25T03:21:27.289Z,0.60
2023-01-25T03:24:00.726Z,0.70
2023-01-25T03:26:28.802Z,0.70
2023-01-25T03:28:55.837Z,0.60
2023-01-25T03:31:23.161Z,0.60
2023-01-25T03:33:50.193Z,0.60
2023-01-25T03:36:20.340Z,0.60
2023-01-25T03:38:50.503Z,0.60
2023-01-25T03:41:18.639Z,0.70
2023-01-25T03:43:45.630Z,0.50
2023-01-25T03:46:12.703Z,0.50
2023-01-25T03:48:39.746Z,0.50
2023-01-25T03:51:06.885Z,0.50
2023-01-25T03:53:34.100Z,0.50
2023-01-25T03:56:08.544Z,0.40
2023-01-25T03:58:37.290Z,0.30
2023-01-25T04:01:06.324Z,0.30
2023-01-25T04:03:33.821Z,0.30
2023-01-25T04:06:00.987Z,0.20
2023-01-25T04:08:28.567Z,0.30
2023-01-25T04:11:07.039Z,0.30
2023-01-25T04:13:37.428Z,0.30
2023-01-25T04:16:05.737Z,0.40
2023-01-25T04:18:33.033Z,0.40
2023-01-25T04:21:00.161Z,0.40
2023-01-25T04:23:27.501Z,0.40
2023-01-25T04:25:59.255Z,0.40
2023-01-25T04:28:26.851Z,0.40
2023-01-25T04:30:55.428Z,0.40
2023-01-25T04:33:22.632Z,0.40
2023-01-25T04:35:49.964Z,0.40
2023-01-25T04:38:17.253Z,0.40
2023-01-25T04:40:44.980Z,0.40
2023-01-25T04:43:15.057Z,0.40
2023-01-25T04:45:42.379Z,0.40
2023-01-25T04:48:11.264Z,0.40
2023-01-25T04:50:42.922Z,0.40
2023-01-25T04:53:15.275Z,0.40
2023-01-25T04:55:47.309Z,0.40
2023-01-25T04:58:14.650Z,0.40
2023-01-25T05:00:41.679Z,0.30
2023-01-25T05:03:08.858Z,0.40
2023-01-25T05:05:35.852Z,0.40
2023-01-25T05:08:02.893Z,0.40
2023-01-25T05:10:29.876Z,0.40
2023-01-25T05:12:56.995Z,0.40
2023-01-25T05:15:24.046Z,0.40
2023-01-25T05:17:51.305Z,0.40
2023-01-25T05:20:18.500Z,0.50
2023-01-25T05:22:45.535Z,0.40
2023-01-25T05:25:32.458Z,0.40
2023-01-25T05:27:59.607Z,0.40
2023-01-25T05:30:26.646Z,0.50
2023-01-25T05:32:53.646Z,0.40
2023-01-25T05:35:20.684Z,0.30
2023-01-25T05:37:47.965Z,0.30
2023-01-25T05:40:17.303Z,0.30
2023-01-25T05:42:44.481Z,0.30
2023-01-25T05:45:11.981Z,0.30
2023-01-25T05:47:39.110Z,0.30
2023-01-25T05:50:08.738Z,0.30
2023-01-25T05:52:36.787Z,0.40
2023-01-25T05:55:05.048Z,0.30
2023-01-25T05:57:32.373Z,0.30
2023-01-25T05:59:59.465Z,0.30
2023-01-25T06:02:43.111Z,0.30
2023-01-25T06:05:11.033Z,0.30
2023-01-25T06:07:38.458Z,0.40
2023-01-25T06:10:11.210Z,0.40
2023-01-25T06:12:41.309Z,0.30
2023-01-25T06:15:09.212Z,0.30
2023-01-25T06:17:36.699Z,0.30
2023-01-25T06:20:05.555Z,0.30
2023-01-25T06:22:32.763Z,0.20
2023-01-25T06:25:00.090Z,0.30
2023-01-25T06:27:30.564Z,0.40
2023-01-25T06:29:57.948Z,0.30
2023-01-25T06:32:26.223Z,0.30
2023-01-25T06:34:57.484Z,0.30
2023-01-25T06:37:24.741Z,0.30
2023-01-25T06:39:51.951Z,0.40
2023-01-25T06:42:19.535Z,0.40
2023-01-25T06:44:49.758Z,0.30
2023-01-25T06:47:16.875Z,0.40
2023-01-25T06:49:46.243Z,0.40
2023-01-25T06:52:13.544Z,0.30
2023-01-25T06:54:41.387Z,0.40
2023-01-25T06:57:29.004Z,0.40
2023-01-25T06:59:57.986Z,0.40
2023-01-25T07:02:25.141Z,0.40
2023-01-25T07:04:52.258Z,0.40
2023-01-25T07:07:19.658Z,0.50
2023-01-25T07:09:57.113Z,0.40
2023-01-25T07:12:55.989Z,0.50
2023-01-25T07:18:22.281Z,0.50
2023-01-25T07:20:50.579Z,0.50
2023-01-25T07:23:17.831Z,0.50
2023-01-25T07:25:48.760Z,0.60
2023-01-25T07:28:17.027Z,0.50
2023-01-25T07:30:44.657Z,0.50
2023-01-25T07:33:11.903Z,0.50
2023-01-25T07:35:47.684Z,0.50
2023-01-25T07:38:45.096Z,0.50
2023-01-25T07:41:26.949Z,0.50
2023-01-25T07:44:01.860Z,0.60
2023-01-25T07:49:51.149Z,0.60
2023-01-25T07:52:21.328Z,0.60
2023-01-25T07:55:03.413Z,0.60
2023-01-25T07:57:32.163Z,0.60
2023-01-25T08:00:17.997Z,0.50
2023-01-25T08:02:47.363Z,0.50
2023-01-25T08:05:25.579Z,0.50
2023-01-25T08:07:52.592Z,0.50
2023-01-25T08:10:20.566Z,0.60
2023-01-25T08:12:47.841Z,0.60
2023-01-25T08:15:21.411Z,0.60
2023-01-25T08:17:50.383Z,0.60
2023-01-25T08:20:18.715Z,0.60
2023-01-25T08:22:48.532Z,0.60
2023-01-25T08:25:32.330Z,0.60
2023-01-25T08:28:03.643Z,0.60
2023-01-25T08:30:31.017Z,0.60
2023-01-25T08:32:59.779Z,0.60
2023-01-25T08:35:47.319Z,0.70
2023-01-25T08:38:16.833Z,0.70
2023-01-25T08:40:45.322Z,0.80
2023-01-25T08:43:25.153Z,0.80
2023-01-25T08:46:14.414Z,0.80
2023-01-25T08:49:22.736Z,0.70
2023-01-25T08:51:50.668Z,0.60
2023-01-25T08:54:18.108Z,0.70
2023-01-25T08:56:50.593Z,0.70
2023-01-25T08:59:18.184Z,0.80
2023-01-25T09:01:45.652Z,0.80
2023-01-25T09:04:14.457Z,0.80
2023-01-25T09:07:14.632Z,0.80
2023-01-25T09:09:42.531Z,0.70
2023-01-25T09:12:10.363Z,0.80
2023-01-25T09:14:40.386Z,0.70
2023-01-25T09:17:10.684Z,0.70
2023-01-25T09:19:37.930Z,0.80
2023-01-25T09:25:05.797Z,0.70
2023-01-25T09:27:33.614Z,0.70
2023-01-25T09:30:02.304Z,0.70
2023-01-25T09:32:44.604Z,0.60
2023-01-25T09:35:15.184Z,0.60
2023-01-25T09:37:43.951Z,0.60
2023-01-25T09:40:26.754Z,0.60
2023-01-25T09:42:56.669Z,0.60
2023-01-25T09:45:37.512Z,0.70
2023-01-25T09:48:39.188Z,0.70
2023-01-25T09:51:38.470Z,0.80
2023-01-25T09:54:09.854Z,0.80
2023-01-25T09:56:38.423Z,0.80
2023-01-25T09:59:19.453Z,0.90
2023-01-25T10:02:32.140Z,0.90
2023-01-25T10:05:08.068Z,0.90
2023-01-25T10:07:56.676Z,0.90
2023-01-25T10:10:38.159Z,0.90
2023-01-25T10:13:10.048Z,1.00
2023-01-25T10:15:44.241Z,1.10
2023-01-25T10:18:22.766Z,1.00
2023-01-25T10:21:03.622Z,1.00
2023-01-25T10:23:34.679Z,1.10
2023-01-25T10:26:07.559Z,1.00
2023-01-25T10:29:03.362Z,1.00
2023-01-25T10:31:54.363Z,1.00
2023-01-25T10:34:55.284Z,1.00
2023-01-25T10:37:27.264Z,1.00
2023-01-25T10:40:14.260Z,1.00
2023-01-25T10:42:51.574Z,1.10
2023-01-25T10:45:19.039Z,1.10
2023-01-25T10:48:06.639Z,1.00
2023-01-25T10:50:42.437Z,0.90
2023-01-25T10:53:26.504Z,1.00
2023-01-25T10:56:19.494Z,1.00
2023-01-25T10:58:49.861Z,1.10
2023-01-25T11:01:26.107Z,1.10
2023-01-25T11:03:53.718Z,1.10
2023-01-25T11:06:38.677Z,1.10
2023-01-25T11:09:36.218Z,1.10
2023-01-25T11:12:15.204Z,1.10
2023-01-25T11:14:42.158Z,1.10
2023-01-25T11:17:21.356Z,1.20
2023-01-25T11:19:48.269Z,1.10
2023-01-25T11:22:24.232Z,1.10
2023-01-25T11:24:51.174Z,1.20
2023-01-25T11:27:21.065Z,1.00
2023-01-25T11:30:10.610Z,1.00
2023-01-25T11:32:41.902Z,1.10
2023-01-25T11:35:21.199Z,1.10
2023-01-25T11:38:14.043Z,1.10
2023-01-25T11:41:02.265Z,1.20
2023-01-25T11:43:48.326Z,1.20
2023-01-25T11:46:21.210Z,1.30
2023-01-25T11:49:06.674Z,1.20
2023-01-25T11:51:56.917Z,1.10
2023-01-25T11:54:36.008Z,1.10
2023-01-25T11:57:12.811Z,1.00
2023-01-25T12:00:14.300Z,1.10
2023-01-25T12:03:00.844Z,1.00
2023-01-25T12:05:54.857Z,1.00
2023-01-25T12:08:27.564Z,1.00
2023-01-25T12:11:20.056Z,1.10
2023-01-25T12:14:04.203Z,1.10
2023-01-25T12:16:52.362Z,1.10
2023-01-25T12:19:33.949Z,1.00
2023-01-25T12:22:06.876Z,1.00
2023-01-25T12:24:39.577Z,1.00
2023-01-25T12:27:07.491Z,1.00
2023-01-25T12:29:43.101Z,1.00
2023-01-25T12:32:36.847Z,1.10
2023-01-25T12:35:22.457Z,1.00
2023-01-25T12:37:52.747Z,1.00
2023-01-25T12:41:01.226Z,1.00
2023-01-25T12:43:58.906Z,1.00
2023-01-25T12:46:35.467Z,1.00
2023-01-25T12:49:14.179Z,1.10
2023-01-25T12:51:43.028Z,1.10
2023-01-25T12:54:38.410Z,1.10
2023-01-25T12:57:40.794Z,1.00
2023-01-25T13:00:35.628Z,0.90
2023-01-25T13:03:23.386Z,0.90
2023-01-25T13:05:56.202Z,0.90
2023-01-25T13:08:35.517Z,0.90
2023-01-25T13:11:25.535Z,0.90
2023-01-25T13:13:52.570Z,0.80
2023-01-25T13:16:35.132Z,0.80
2023-01-25T13:19:02.288Z,0.90
2023-01-25T13:21:50.629Z,0.90
2023-01-25T13:24:24.249Z,0.90
2023-01-25T13:26:59.961Z,0.90
2023-01-25T13:29:35.737Z,0.90
2023-01-25T13:32:04.596Z,0.90
2023-01-25T13:34:40.263Z,0.90
2023-01-25T13:37:23.116Z,1.00
2023-01-25T13:40:08.336Z,1.00
2023-01-25T13:42:38.698Z,1.00
2023-01-25T13:45:18.723Z,1.00
2023-01-25T13:48:05.255Z,1.00
2023-01-25T13:50:38.164Z,1.00
2023-01-25T13:53:07.192Z,1.00
2023-01-25T13:55:42.725Z,0.80
2023-01-25T13:58:14.894Z,0.80
2023-01-25T14:00:50.835Z,0.90
2023-01-25T14:03:18.052Z,0.90
2023-01-25T14:05:53.741Z,0.90
2023-01-25T14:08:21.715Z,0.90
2023-01-25T14:10:49.848Z,0.90
2023-01-25T14:13:18.169Z,0.90
2023-01-25T14:16:04.779Z,0.80
2023-01-25T14:18:38.572Z,0.70
2023-01-25T14:21:19.358Z,0.70
2023-01-25T14:23:47.498Z,0.70
2023-01-25T14:26:24.673Z,0.80
2023-01-25T14:29:01.290Z,0.80
2023-01-25T14:31:36.292Z,0.70
2023-01-25T14:34:05.051Z,0.70
2023-01-25T14:36:34.810Z,0.70
2023-01-25T14:39:03.901Z,0.70
2023-01-25T14:41:40.078Z,0.70
2023-01-25T14:44:14.734Z,0.80
2023-01-25T14:46:42.164Z,0.80
2023-01-25T14:49:13.132Z,0.70
2023-01-25T14:51:49.511Z,0.70
2023-01-25T14:54:22.949Z,0.70
2023-01-25T14:57:02.883Z,0.60
2023-01-25T14:59:37.132Z,0.50
2023-01-25T15:02:20.003Z,0.50
2023-01-25T15:05:19.177Z,0.50
2023-01-25T15:07:47.718Z,0.50
2023-01-25T15:10:28.295Z,0.50
2023-01-25T15:13:21.525Z,0.60
2023-01-25T15:16:02.936Z,0.60
2023-01-25T15:18:54.016Z,0.40
2023-01-25T15:21:26.713Z,0.40
2023-01-25T15:23:55.951Z,0.40
2023-01-25T15:26:31.403Z,0.40
2023-01-25T15:29:01.161Z,0.50
2023-01-25T15:31:29.918Z,0.50
2023-01-25T15:33:58.221Z,0.50
2023-01-25T15:36:25.336Z,0.50
2023-01-25T15:38:53.031Z,0.50
2023-01-25T15:41:20.235Z,0.50
2023-01-25T15:43:49.151Z,0.50
2023-01-25T15:46:26.413Z,0.40
2023-01-25T15:48:55.313Z,0.40
2023-01-25T15:51:23.406Z,0.40
2023-01-25T15:53:53.229Z,0.50
2023-01-25T15:56:23.677Z,0.40
2023-01-25T15:58:53.435Z,0.40
2023-01-25T16:01:22.205Z,0.30
2023-01-25T16:03:51.348Z,0.20
2023-01-25T16:06:32.261Z,0.20
2023-01-25T16:09:00.816Z,0.20
2023-01-25T16:11:28.365Z,0.10
2023-01-25T16:13:58.307Z,0.20
2023-01-25T16:16:26.394Z,0.10
2023-01-25T16:19:18.234Z,0.20
2023-01-25T16:21:45.430Z,0.10
2023-01-25T16:24:13.816Z,0.10
2023-01-25T16:27:05.127Z,0.10
2023-01-25T16:29:32.255Z,0.10
2023-01-25T16:31:59.833Z,0.00
2023-01-25T16:34:26.895Z,0.00
2023-01-25T16:36:54.360Z,0.00
2023-01-25T16:39:28.548Z,0.10
2023-01-25T16:41:58.837Z,0.20
2023-01-25T16:44:25.821Z,0.20
2023-01-25T16:46:53.197Z,0.10
2023-01-25T16:49:30.379Z,0.20
2023-01-25T16:51:58.952Z,0.20
2023-01-25T16:54:26.869Z,0.20
2023-01-25T16:56:54.950Z,0.20
2023-01-25T16:59:23.858Z,0.20
2023-01-25T17:01:51.169Z,0.20
2023-01-25T17:04:19.434Z,0.20
2023-01-25T17:06:55.009Z,0.20
2023-01-25T17:09:24.479Z,0.20
2023-01-25T17:11:52.940Z,0.20
2023-01-25T17:14:21.692Z,0.10
2023-01-25T17:16:51.869Z,0.10
2023-01-25T17:19:19.683Z,0.10
2023-01-25T17:21:46.756Z,0.10
2023-01-25T17:24:15.924Z,0.10
2023-01-25T17:26:43.100Z,0.20
2023-01-25T17:29:10.583Z,0.10
2023-01-25T17:31:38.268Z,0.10
2023-01-25T17:34:08.932Z,0.10
2023-01-25T17:36:40.067Z,0.20
2023-01-25T17:39:08.361Z,0.20
2023-01-25T17:41:44.844Z,0.20
2023-01-25T17:44:17.376Z,0.20
2023-01-25T17:46:44.742Z,0.20
2023-01-25T17:49:39.798Z,0.20
2023-01-25T17:52:07.197Z,0.20
2023-01-25T17:54:36.584Z,0.20
2023-01-25T17:57:11.154Z,0.10
2023-01-25T17:59:38.687Z,0.10
2023-01-25T18:02:19.543Z,0.10
2023-01-25T18:04:49.507Z,0.00
2023-01-25T18:07:37.457Z,0.00
2023-01-25T18:50:47.778Z,0.10
2023-01-25T18:53:19.265Z,0.10
2023-01-25T18:56:03.086Z,0.10
2023-01-25T18:58:38.142Z,0.10
2023-01-25T19:01:09.223Z,0.10
2023-01-25T19:03:40.085Z,0.10
2023-01-25T19:06:21.122Z,0.10
2023-01-25T19:08:54.576Z,0.10
2023-01-25T19:11:23.424Z,0.10
2023-01-25T19:13:52.230Z,0.10
2023-01-25T19:16:26.188Z,0.10
2023-01-25T19:18:55.234Z,0.10
2023-01-25T19:21:28.097Z,0.20
2023-01-25T19:23:58.693Z,0.10
2023-01-25T19:26:29.893Z,0.10
2023-01-25T19:29:02.403Z,0.00
2023-01-25T19:31:32.734Z,0.00
2023-01-25T19:34:03.989Z,0.00
2023-01-25T19:37:06.102Z,0.00
2023-01-25T19:39:34.075Z,0.00
2023-01-25T19:42:06.201Z,0.00
2023-01-25T19:44:35.755Z,0.10
2023-01-25T19:47:05.422Z,0.10
2023-01-25T19:49:35.907Z,0.10
2023-01-25T19:52:07.307Z,0.10
2023-01-25T19:54:36.067Z,0.10
2023-01-25T19:57:08.759Z,0.10
2023-01-25T19:59:36.343Z,0.20
2023-01-25T20:02:05.172Z,0.20
2023-01-25T20:04:34.702Z,0.20
2023-01-25T20:07:04.827Z,0.20
2023-01-25T20:09:34.385Z,0.20
2023-01-25T20:12:16.891Z,0.20
2023-01-25T20:14:49.027Z,0.20
2023-01-25T20:17:25.597Z,0.20
2023-01-25T20:19:57.197Z,0.20
2023-01-25T20:22:34.828Z,0.20
2023-01-25T20:25:08.547Z,0.20
2023-01-25T20:27:44.840Z,0.20
2023-01-25T20:30:13.037Z,0.20
2023-01-25T20:33:15.100Z,0.20
2023-01-25T20:35:36.865Z,0.20
2023-01-25T20:38:06.077Z,0.10
2023-01-25T20:40:43.552Z,0.10
2023-01-25T20:43:11.330Z,0.20
2023-01-25T20:45:44.915Z,0.20
2023-01-25T20:48:13.753Z,0.20
2023-01-25T20:50:44.640Z,0.30
2023-01-25T20:53:18.135Z,0.30
2023-01-25T20:55:47.154Z,0.30
2023-01-25T20:58:19.323Z,0.20
2023-01-25T21:00:51.969Z,0.20
2023-01-25T21:03:21.044Z,0.20
2023-01-25T21:05:55.004Z,0.20
2023-01-25T21:08:29.764Z,0.20
2023-01-25T21:11:01.197Z,0.20
2023-01-25T21:13:30.347Z,0.20
2023-01-25T21:16:11.641Z,0.20
2023-01-25T21:18:41.584Z,0.20
2023-01-25T21:21:29.985Z,0.20
2023-01-25T21:24:00.573Z,0.20
2023-01-25T21:29:22.015Z,0.10
2023-01-25T21:31:53.895Z,0.10
2023-01-25T21:34:26.556Z,0.10
2023-01-25T21:36:55.384Z,0.10
2023-01-25T21:39:22.924Z,0.00
2023-01-25T21:41:50.389Z,0.00
2023-01-25T21:44:36.536Z,0.00
2023-01-25T21:47:29.973Z,0.10
2023-01-25T21:50:28.899Z,0.10
2023-01-25T21:53:03.037Z,0.10
2023-01-25T21:55:40.704Z,0.10
2023-01-25T21:58:09.554Z,0.10
2023-01-25T22:00:37.456Z,0.20
2023-01-25T22:03:05.845Z,0.20
2023-01-25T22:05:36.854Z,0.20
2023-01-25T22:08:04.595Z,0.10
2023-01-25T22:10:39.215Z,0.20
2023-01-25T22:13:06.604Z,0.20
2023-01-25T22:15:34.211Z,0.30
2023-01-25T22:18:03.505Z,0.20
2023-01-25T22:20:32.936Z,0.20
2023-01-25T22:23:01.346Z,0.20
2023-01-25T22:25:28.391Z,0.10
2023-01-25T22:28:05.074Z,0.20
2023-01-25T22:30:32.767Z,0.10
2023-01-25T22:33:00.251Z,0.10
2023-01-25T22:35:27.958Z,0.10
2023-01-25T22:37:58.903Z,0.10
2023-01-25T22:40:36.166Z,0.00
2023-01-25T22:43:04.086Z,0.00
2023-01-25T22:45:35.111Z,0.00
2023-01-25T22:48:05.641Z,0.00
2023-01-25T22:50:34.114Z,0.10
2023-01-25T22:53:02.100Z,0.00
2023-01-25T22:55:30.725Z,0.00
2023-01-25T22:57:58.867Z,0.00
2023-01-25T23:00:26.536Z,0.00
2023-01-25T23:02:59.191Z,0.00
2023-01-25T23:05:28.307Z,0.00
2023-01-25T23:08:16.634Z,0.00
2023-01-25T23:10:51.204Z,0.00
2023-01-25T23:13:20.339Z,0.10
2023-01-25T23:15:47.997Z,0.00
2023-01-25T23:18:34.260Z,0.10
2023-01-25T23:21:04.554Z,0.10
2023-01-25T23:23:33.267Z,0.10
2023-01-25T23:26:02.228Z,0.10
2023-01-25T23:28:33.337Z,0.10
2023-01-25T23:31:18.041Z,0.20
2023-01-25T23:33:50.965Z,0.20
2023-01-25T23:36:23.777Z,0.10
2023-01-25T23:38:51.915Z,0.10
2023-01-25T23:41:21.261Z,0.10
2023-01-25T23:43:49.755Z,0.10
2023-01-25T23:46:18.192Z,0.10
2023-01-25T23:48:47.581Z,0.10
2023-01-25T23:51:16.992Z,0.10
2023-01-25T23:53:45.341Z,0.10
2023-01-25T23:56:23.753Z,0.10
2023-01-25T23:58:51.192Z,0.10
